Terminal Aerodrome Forecast
Issued by NWS

Home | Current Version | Previous Version | Graphics & Text | Print | Product List | Glossary Off
Versions: 1 2 3 4 5 6 7 8 9 10 11 12

000
FTUS43 KBIS 291723 AAA
TAFMOT
TAF AMD
KMOT 291723Z 2917/3018 15014G23KT P6SM SKC
     FM300100 14009KT P6SM SKC
     FM300600 14008KT P6SM FEW200 WS020/17040KT
     FM301300 13007KT P6SM BKN140
     FM301600 14012G19KT P6SM BKN120=

USA.gov is the U.S. government's official web portal to all federal, state and local government web resources and services.